aviador You're here:

KSIK Decoded Metar

in
Report Time2017-07-24 16:35:00
UTC Time2017-07-24 16:36:09
Flight Rules vfr VFR
Wind260° at 03 kt
W.Decomp.*RWY 20: 1.5 kt HW 2.6 kt RCW
W.Rank260° ranks 25
Current wind is below 260° avg. (6.8)
Visibility9999 m
Phenomena:N/A
Clouds:N/A
Expected CloudBase > 2,800 ft AGL from Temp-Dew spread
CeilingNone
Temp31°C
Dew Point24°C (66% RH)
Heat Index36.4°C
QNH1014 hPa
Raw Report
KSIK 241635Z AUTO 26003KT 10SM CLR 31/24 A2995 RMK AO2=

Extra information for KSIK:More info

Social comments